createdAt,value
2023-04-06T00:01:06.072Z,47.36
2023-04-06T00:03:33.225Z,47.77
2023-04-06T00:06:00.698Z,47.59
2023-04-06T00:08:28.168Z,49.17
2023-04-06T00:10:55.460Z,49.13
2023-04-06T00:13:22.698Z,48.54
2023-04-06T00:15:49.833Z,48.40
2023-04-06T00:18:17.122Z,49.72
2023-04-06T00:20:44.262Z,48.77
2023-04-06T00:23:11.369Z,52.45
2023-04-06T00:25:38.447Z,52.23
2023-04-06T00:28:05.738Z,49.97
2023-04-06T00:30:32.850Z,46.61
2023-04-06T00:33:00.104Z,46.34
2023-04-06T00:35:27.319Z,46.39
2023-04-06T00:37:54.375Z,48.03
2023-04-06T00:40:21.491Z,49.57
2023-04-06T00:43:07.958Z,48.20
2023-04-06T00:45:35.024Z,48.35
2023-04-06T00:48:02.968Z,46.99
2023-04-06T00:50:30.408Z,46.82
2023-04-06T00:52:57.577Z,45.71
2023-04-06T00:55:27.888Z,44.47
2023-04-06T00:57:55.577Z,44.40
2023-04-06T01:00:22.798Z,46.30
2023-04-06T01:02:55.429Z,49.13
2023-04-06T01:05:25.888Z,48.26
2023-04-06T01:07:56.714Z,50.05
2023-04-06T01:10:28.192Z,50.19
2023-04-06T01:13:18.069Z,49.65
2023-04-06T01:15:50.447Z,48.96
2023-04-06T01:18:27.860Z,49.72
2023-04-06T01:21:04.453Z,51.81
2023-04-06T01:23:31.654Z,50.59
2023-04-06T01:25:58.769Z,49.93
2023-04-06T01:28:26.811Z,48.66
2023-04-06T01:31:01.108Z,49.62
2023-04-06T01:33:48.959Z,49.10
2023-04-06T01:36:19.243Z,50.27
2023-04-06T01:38:51.346Z,50.26
2023-04-06T01:41:22.090Z,51.37
2023-04-06T01:43:55.525Z,50.78
2023-04-06T01:46:26.433Z,49.97
2023-04-06T01:48:53.852Z,49.30
2023-04-06T01:51:41.477Z,49.33
2023-04-06T01:54:12.478Z,48.77
2023-04-06T01:56:57.751Z,49.23
2023-04-06T01:59:34.716Z,49.63
2023-04-06T02:02:07.143Z,49.39
2023-04-06T02:04:35.946Z,49.10
2023-04-06T02:07:12.281Z,49.58
2023-04-06T02:09:39.861Z,50.55
2023-04-06T02:12:11.418Z,51.13
2023-04-06T02:14:38.501Z,51.56
2023-04-06T02:17:05.897Z,50.84
2023-04-06T02:19:33.213Z,50.21
2023-04-06T02:22:00.314Z,51.23
2023-04-06T02:24:27.462Z,51.71
2023-04-06T02:26:54.530Z,52.87
2023-04-06T02:29:21.822Z,51.59
2023-04-06T02:31:49.402Z,51.38
2023-04-06T02:34:18.753Z,51.67
2023-04-06T02:36:49.920Z,49.75
2023-04-06T02:39:18.418Z,49.66
2023-04-06T02:41:45.642Z,51.55
2023-04-06T02:44:15.415Z,51.63
2023-04-06T02:46:44.195Z,52.06
2023-04-06T02:49:11.450Z,52.84
2023-04-06T02:51:38.729Z,52.52
2023-04-06T02:54:20.030Z,52.75
2023-04-06T02:56:47.176Z,52.46
2023-04-06T02:59:14.616Z,52.99
2023-04-06T03:01:47.939Z,52.24
2023-04-06T03:04:15.209Z,51.29
2023-04-06T03:06:42.422Z,50.48
2023-04-06T03:09:20.818Z,50.62
2023-04-06T03:11:48.028Z,51.76
2023-04-06T03:14:15.785Z,52.85
2023-04-06T03:16:42.850Z,53.19
2023-04-06T03:19:12.421Z,52.14
2023-04-06T03:21:39.604Z,52.00
2023-04-06T03:24:07.110Z,53.23
2023-04-06T03:26:34.304Z,51.68
2023-04-06T03:29:05.501Z,52.41
2023-04-06T03:31:32.847Z,51.75
2023-04-06T03:34:06.350Z,52.28
2023-04-06T03:36:36.128Z,54.95
2023-04-06T03:39:04.567Z,53.43
2023-04-06T03:41:35.096Z,51.75
2023-04-06T03:44:34.312Z,49.97
2023-04-06T03:47:01.966Z,50.47
2023-04-06T03:49:29.273Z,51.84
2023-04-06T03:51:57.834Z,51.86
2023-04-06T03:54:24.973Z,51.92
2023-04-06T03:56:52.096Z,51.46
2023-04-06T03:59:19.351Z,51.89
2023-04-06T04:01:46.507Z,52.36
2023-04-06T04:04:13.698Z,52.79
2023-04-06T04:06:40.825Z,52.43
2023-04-06T04:09:09.251Z,53.85
2023-04-06T04:11:36.607Z,52.91
2023-04-06T04:14:04.425Z,53.44
2023-04-06T04:16:31.734Z,54.23
2023-04-06T04:19:01.916Z,54.59
2023-04-06T04:21:31.298Z,55.15
2023-04-06T04:23:59.625Z,56.37
2023-04-06T04:26:26.782Z,55.04
2023-04-06T04:28:54.763Z,55.04
2023-04-06T04:31:23.657Z,55.52
2023-04-06T04:33:55.441Z,56.88
2023-04-06T04:36:28.781Z,55.99
2023-04-06T04:38:58.234Z,56.01
2023-04-06T04:41:26.116Z,56.79
2023-04-06T04:43:53.671Z,58.15
2023-04-06T04:46:23.608Z,59.49
2023-04-06T04:48:51.412Z,59.98
2023-04-06T04:51:18.625Z,58.70
2023-04-06T04:54:03.206Z,60.06
2023-04-06T04:56:32.606Z,56.70
2023-04-06T04:59:15.742Z,57.19
2023-04-06T05:01:55.381Z,57.28
2023-04-06T05:04:28.538Z,57.30
2023-04-06T05:07:11.315Z,56.72
2023-04-06T05:09:41.000Z,56.80
2023-04-06T05:12:08.531Z,56.66
2023-04-06T05:14:42.787Z,56.42
2023-04-06T05:17:14.766Z,56.97
2023-04-06T05:19:41.914Z,56.13
2023-04-06T05:22:10.416Z,56.13
2023-04-06T05:24:41.168Z,55.45
2023-04-06T05:27:09.084Z,56.25
2023-04-06T05:29:36.638Z,55.90
2023-04-06T05:32:04.420Z,55.93
2023-04-06T05:34:32.004Z,55.89
2023-04-06T05:37:02.948Z,57.24
2023-04-06T05:39:30.302Z,56.38
2023-04-06T05:41:57.560Z,56.91
2023-04-06T05:44:34.735Z,56.01
2023-04-06T05:47:12.331Z,53.90
2023-04-06T05:49:42.831Z,54.34
2023-04-06T05:52:14.804Z,52.94
2023-04-06T05:54:45.749Z,53.71
2023-04-06T05:57:12.850Z,51.38
2023-04-06T05:59:40.481Z,53.24
2023-04-06T06:02:07.778Z,53.84
2023-04-06T06:04:39.750Z,52.46
2023-04-06T06:07:07.490Z,52.28
2023-04-06T06:09:43.660Z,49.17
2023-04-06T06:12:37.250Z,47.36
2023-04-06T06:15:04.954Z,49.00
2023-04-06T06:17:38.925Z,48.54
2023-04-06T06:20:07.499Z,46.76
2023-04-06T06:22:34.674Z,46.58
2023-04-06T06:25:03.316Z,45.05
2023-04-06T06:27:30.577Z,44.58
2023-04-06T06:29:57.709Z,43.02
2023-04-06T06:32:25.833Z,41.41
2023-04-06T06:34:54.076Z,39.75
2023-04-06T06:37:21.204Z,39.68
2023-04-06T06:39:49.471Z,38.42
2023-04-06T06:42:17.194Z,38.20
2023-04-06T06:44:51.171Z,36.24
2023-04-06T06:47:18.343Z,35.33
2023-04-06T06:49:45.419Z,35.22
2023-04-06T06:52:12.577Z,31.81
2023-04-06T06:54:39.789Z,31.70
2023-04-06T06:57:06.974Z,30.18
2023-04-06T06:59:35.359Z,28.51
2023-04-06T07:02:02.679Z,28.88
2023-04-06T07:04:29.908Z,28.53
2023-04-06T07:06:57.140Z,28.68
2023-04-06T07:09:24.346Z,29.29
2023-04-06T07:11:51.433Z,27.70
2023-04-06T07:14:18.693Z,28.58
2023-04-06T07:16:47.919Z,29.65
2023-04-06T07:19:15.876Z,29.68
2023-04-06T07:21:43.483Z,31.14
2023-04-06T07:24:11.468Z,31.22
2023-04-06T07:26:38.715Z,30.32
2023-04-06T07:29:06.004Z,30.18
2023-04-06T07:31:33.251Z,29.04
2023-04-06T07:34:00.528Z,28.23
2023-04-06T07:36:27.694Z,27.57
2023-04-06T07:38:55.336Z,26.96
2023-04-06T07:41:24.518Z,27.28
2023-04-06T07:43:51.664Z,26.42
2023-04-06T07:46:19.102Z,25.01
2023-04-06T07:48:46.677Z,25.48
2023-04-06T07:51:15.914Z,24.14
2023-04-06T07:53:47.107Z,25.92
2023-04-06T07:56:14.646Z,25.26
2023-04-06T07:58:41.904Z,25.43
2023-04-06T08:01:09.066Z,25.22
2023-04-06T08:03:36.684Z,25.41
2023-04-06T08:06:04.095Z,24.51
2023-04-06T08:08:31.817Z,24.33
2023-04-06T08:11:00.770Z,25.10
2023-04-06T08:13:29.381Z,24.10
2023-04-06T08:15:56.715Z,25.61
2023-04-06T08:18:23.778Z,23.96
2023-04-06T08:20:50.975Z,24.32
2023-04-06T08:23:18.183Z,22.91
2023-04-06T08:25:45.437Z,22.92
2023-04-06T08:28:12.662Z,23.63
2023-04-06T08:30:43.937Z,22.88
2023-04-06T08:33:11.822Z,24.41
2023-04-06T08:35:39.016Z,23.78
2023-04-06T08:38:07.138Z,23.22
2023-04-06T08:40:40.951Z,23.04
2023-04-06T08:43:10.839Z,23.63
2023-04-06T08:45:38.044Z,22.93
2023-04-06T08:48:07.660Z,21.25
2023-04-06T08:50:35.166Z,21.65
2023-04-06T08:53:02.527Z,21.23
2023-04-06T08:55:30.537Z,22.12
2023-04-06T08:57:57.937Z,21.93
2023-04-06T09:00:26.628Z,21.29
2023-04-06T09:02:57.200Z,22.43
2023-04-06T09:05:25.595Z,22.45
2023-04-06T09:07:52.967Z,21.39
2023-04-06T09:10:21.588Z,19.26
2023-04-06T09:12:48.672Z,19.87
2023-04-06T09:15:22.098Z,21.54
2023-04-06T09:17:52.828Z,21.36
2023-04-06T09:20:24.169Z,21.62
2023-04-06T09:22:51.253Z,22.10
2023-04-06T09:25:22.522Z,22.46
2023-04-06T09:27:58.877Z,20.42
2023-04-06T09:30:26.111Z,22.71
2023-04-06T09:32:54.477Z,22.53
2023-04-06T09:35:22.470Z,21.93
2023-04-06T09:37:50.645Z,22.13
2023-04-06T09:40:20.582Z,21.74
2023-04-06T09:42:48.235Z,20.51
2023-04-06T09:45:16.380Z,22.49
2023-04-06T09:47:46.141Z,22.65
2023-04-06T09:50:14.433Z,22.35
2023-04-06T09:52:43.457Z,21.72
2023-04-06T09:55:10.784Z,20.94
2023-04-06T09:57:38.051Z,20.14
2023-04-06T10:00:12.507Z,19.62
2023-04-06T10:02:47.008Z,20.54
2023-04-06T10:05:20.148Z,21.24
2023-04-06T10:07:59.628Z,20.92
2023-04-06T10:10:28.937Z,22.01
2023-04-06T10:12:56.877Z,21.48
2023-04-06T10:15:25.231Z,21.33
2023-04-06T10:17:52.486Z,22.04
2023-04-06T10:20:39.823Z,20.41
2023-04-06T10:23:21.756Z,21.03
2023-04-06T10:25:58.879Z,21.19
2023-04-06T10:28:26.821Z,21.63
2023-04-06T10:31:00.751Z,21.60
2023-04-06T10:33:28.540Z,20.28
2023-04-06T10:35:58.387Z,20.83
2023-04-06T10:38:54.645Z,21.61
2023-04-06T10:41:21.801Z,22.02
2023-04-06T10:43:55.936Z,21.75
2023-04-06T10:46:30.646Z,21.56
2023-04-06T10:48:58.080Z,20.80
2023-04-06T10:51:27.998Z,22.80
2023-04-06T10:53:55.741Z,21.71
2023-04-06T10:56:23.895Z,21.30
2023-04-06T10:58:52.560Z,21.78
2023-04-06T11:01:21.229Z,21.58
2023-04-06T11:03:49.964Z,21.28
2023-04-06T11:06:27.914Z,21.64
2023-04-06T11:08:55.320Z,22.37
2023-04-06T11:11:23.763Z,22.41
2023-04-06T11:13:51.876Z,22.59
2023-04-06T11:16:19.036Z,21.70
2023-04-06T11:18:50.244Z,22.32
2023-04-06T11:21:17.621Z,22.82
2023-04-06T11:23:44.762Z,23.18
2023-04-06T11:26:13.187Z,23.93
2023-04-06T11:28:44.167Z,24.03
2023-04-06T11:31:12.158Z,24.56
2023-04-06T11:33:39.817Z,23.66
2023-04-06T11:36:07.806Z,25.06
2023-04-06T11:38:35.023Z,24.40
2023-04-06T11:41:02.416Z,25.07
2023-04-06T11:43:32.715Z,23.06
2023-04-06T11:46:05.702Z,23.04
2023-04-06T11:48:32.919Z,23.92
2023-04-06T11:51:04.707Z,24.20
2023-04-06T11:53:31.879Z,23.80
2023-04-06T11:56:00.635Z,24.65
2023-04-06T11:58:28.219Z,23.69
2023-04-06T12:01:03.720Z,23.59
2023-04-06T12:03:30.878Z,24.68
2023-04-06T12:05:59.754Z,24.58
2023-04-06T12:08:26.998Z,24.88
2023-04-06T12:10:54.098Z,25.00
2023-04-06T12:13:21.381Z,25.55
2023-04-06T12:15:48.549Z,24.96
2023-04-06T12:18:15.613Z,24.19
2023-04-06T12:20:42.790Z,24.00
2023-04-06T12:23:09.897Z,23.93
2023-04-06T12:25:37.060Z,25.03
2023-04-06T12:28:04.125Z,25.02
2023-04-06T12:30:31.394Z,25.14
2023-04-06T12:32:58.716Z,24.84
2023-04-06T12:35:26.091Z,25.38
2023-04-06T12:37:53.223Z,25.00
2023-04-06T12:40:20.745Z,25.08
2023-04-06T12:42:47.960Z,24.55
2023-04-06T12:45:15.192Z,25.22
2023-04-06T12:47:42.465Z,24.95
2023-04-06T12:50:09.899Z,25.17
2023-04-06T12:52:37.526Z,25.35
2023-04-06T12:55:06.048Z,25.27
2023-04-06T12:57:33.220Z,25.17
2023-04-06T13:00:01.226Z,25.59
2023-04-06T13:02:28.650Z,25.01
2023-04-06T13:04:55.797Z,26.09
2023-04-06T13:07:23.476Z,26.29
2023-04-06T13:09:50.674Z,25.86
2023-04-06T13:12:17.861Z,25.61
2023-04-06T13:14:45.072Z,25.78
2023-04-06T13:17:12.150Z,25.44
2023-04-06T13:19:39.323Z,26.01
2023-04-06T13:22:06.390Z,25.09
2023-04-06T13:24:33.636Z,25.71
2023-04-06T13:27:01.676Z,25.57
2023-04-06T13:29:28.988Z,25.75
2023-04-06T13:31:56.346Z,25.12
2023-04-06T13:34:23.543Z,25.19
2023-04-06T13:36:50.777Z,26.38
2023-04-06T13:39:17.925Z,26.32
2023-04-06T13:41:45.701Z,25.02
2023-04-06T13:44:12.903Z,25.22
2023-04-06T13:46:39.990Z,24.95
2023-04-06T13:49:07.204Z,25.42
2023-04-06T13:51:34.398Z,25.10
2023-04-06T13:54:01.566Z,25.59
2023-04-06T13:56:28.608Z,25.69
2023-04-06T13:58:57.818Z,25.55
2023-04-06T14:01:26.062Z,25.89
2023-04-06T14:03:53.330Z,25.21
2023-04-06T14:06:30.334Z,26.43
2023-04-06T14:08:58.879Z,26.37
2023-04-06T14:11:26.005Z,26.09
2023-04-06T14:13:53.298Z,26.33
2023-04-06T14:16:22.475Z,26.77
2023-04-06T14:18:49.568Z,26.75
2023-04-06T14:21:17.146Z,26.45
2023-04-06T14:23:44.510Z,26.99
2023-04-06T14:26:12.515Z,26.51
2023-04-06T14:28:39.559Z,26.60
2023-04-06T14:31:14.282Z,26.14
2023-04-06T14:33:41.826Z,26.15
2023-04-06T14:36:09.706Z,26.45
2023-04-06T14:38:36.811Z,25.96
2023-04-06T14:41:03.913Z,26.30
2023-04-06T14:43:32.085Z,26.58
2023-04-06T14:46:02.012Z,26.62
2023-04-06T14:48:29.314Z,26.06
2023-04-06T14:50:56.734Z,26.31
2023-04-06T14:53:24.758Z,26.26
2023-04-06T14:55:54.511Z,26.70
2023-04-06T14:58:22.198Z,26.79
2023-04-06T15:00:50.088Z,26.71
2023-04-06T15:03:17.524Z,26.51
2023-04-06T15:05:44.896Z,26.36
2023-04-06T15:08:12.715Z,26.88
2023-04-06T15:10:40.078Z,26.22
2023-04-06T15:13:07.280Z,26.62
2023-04-06T15:15:34.363Z,26.89
2023-04-06T15:18:03.534Z,26.80
2023-04-06T15:20:30.716Z,26.89
2023-04-06T15:22:59.988Z,27.09
2023-04-06T15:25:27.105Z,27.60
2023-04-06T15:27:58.159Z,27.73
2023-04-06T15:30:26.729Z,27.54
2023-04-06T15:32:56.059Z,27.79
2023-04-06T15:35:23.236Z,28.48
2023-04-06T15:37:50.390Z,28.38
2023-04-06T15:40:17.563Z,28.60
2023-04-06T15:42:44.939Z,28.11
2023-04-06T15:45:12.091Z,29.31
2023-04-06T15:47:39.673Z,29.04
2023-04-06T15:50:07.380Z,28.58
2023-04-06T15:52:34.864Z,28.06
2023-04-06T15:55:03.572Z,28.41
2023-04-06T15:57:31.084Z,28.98
2023-04-06T15:59:58.693Z,28.53
2023-04-06T16:02:26.188Z,28.85
2023-04-06T16:05:02.741Z,29.68
2023-04-06T16:07:30.355Z,28.85
2023-04-06T16:09:57.584Z,30.28
2023-04-06T16:12:25.181Z,29.34
2023-04-06T16:14:52.918Z,28.69
2023-04-06T16:17:20.051Z,28.98
2023-04-06T16:19:47.123Z,28.82
2023-04-06T16:22:14.253Z,28.73
2023-04-06T16:24:42.212Z,29.65
2023-04-06T16:27:09.302Z,29.50
2023-04-06T16:29:37.236Z,29.46
2023-04-06T16:32:06.829Z,29.37
2023-04-06T16:34:34.071Z,30.03
2023-04-06T16:37:01.838Z,29.75
2023-04-06T16:39:29.123Z,29.90
2023-04-06T16:41:56.801Z,29.92
2023-04-06T16:44:24.077Z,30.02
2023-04-06T16:46:51.227Z,29.76
2023-04-06T16:49:20.206Z,29.23
2023-04-06T16:51:49.586Z,29.87
2023-04-06T16:54:17.118Z,30.10
2023-04-06T16:56:44.312Z,29.98
2023-04-06T16:59:11.570Z,29.63
2023-04-06T17:01:38.827Z,29.84
2023-04-06T17:04:06.101Z,30.04
2023-04-06T17:06:33.218Z,29.98
2023-04-06T17:09:00.521Z,29.65
2023-04-06T17:11:32.874Z,30.07
2023-04-06T17:14:10.657Z,29.99
2023-04-06T17:16:37.919Z,30.40
2023-04-06T17:19:05.067Z,31.06
2023-04-06T17:21:32.110Z,31.00
2023-04-06T17:23:59.171Z,30.17
2023-04-06T17:26:26.559Z,30.23
2023-04-06T17:28:53.665Z,30.53
2023-04-06T17:31:20.965Z,30.79
2023-04-06T17:33:48.411Z,30.52
2023-04-06T17:36:16.144Z,30.91
2023-04-06T17:38:44.311Z,30.66
2023-04-06T17:41:12.468Z,31.25
2023-04-06T17:43:39.668Z,31.13
2023-04-06T17:46:06.935Z,31.74
2023-04-06T17:48:34.202Z,31.79
2023-04-06T17:51:01.361Z,31.84
2023-04-06T17:53:32.290Z,31.53
2023-04-06T17:56:06.169Z,31.95
2023-04-06T17:58:33.308Z,32.15
2023-04-06T18:01:05.124Z,32.64
2023-04-06T18:03:32.245Z,32.48
2023-04-06T18:06:08.951Z,32.48
2023-04-06T18:08:35.992Z,32.80
2023-04-06T18:11:04.254Z,33.08
2023-04-06T18:13:31.319Z,33.06
2023-04-06T18:16:01.971Z,33.52
2023-04-06T18:18:29.171Z,33.73
2023-04-06T18:20:56.435Z,34.25
2023-04-06T18:23:23.583Z,34.96
2023-04-06T18:25:51.073Z,34.79
2023-04-06T18:28:18.242Z,34.14
2023-04-06T18:30:45.496Z,34.45
2023-04-06T18:33:12.588Z,34.51
2023-04-06T18:35:42.036Z,34.31
2023-04-06T18:38:09.149Z,34.67
2023-04-06T18:40:37.536Z,34.78
2023-04-06T18:43:06.255Z,34.81
2023-04-06T18:45:34.727Z,35.65
2023-04-06T18:48:01.858Z,35.33
2023-04-06T18:50:28.966Z,35.84
2023-04-06T18:52:56.223Z,36.10
2023-04-06T18:55:23.401Z,35.67
2023-04-06T18:57:50.608Z,35.81
2023-04-06T19:00:18.027Z,35.87
2023-04-06T19:02:45.822Z,35.55
2023-04-06T19:05:13.345Z,35.36
2023-04-06T19:07:42.129Z,35.95
2023-04-06T19:10:09.869Z,36.24
2023-04-06T19:12:38.788Z,35.66
2023-04-06T19:15:07.763Z,36.41
2023-04-06T19:17:35.407Z,35.72
2023-04-06T19:20:02.803Z,36.14
2023-04-06T19:22:29.980Z,36.33
2023-04-06T19:24:57.154Z,37.80
2023-04-06T19:27:24.254Z,38.18
2023-04-06T19:29:52.137Z,39.15
2023-04-06T19:32:19.237Z,39.49
2023-04-06T19:34:46.435Z,38.97
2023-04-06T19:37:13.513Z,39.54
2023-04-06T19:39:44.031Z,39.61
2023-04-06T19:42:12.239Z,38.94
2023-04-06T19:44:39.340Z,39.42
2023-04-06T19:47:06.584Z,39.37
2023-04-06T19:49:33.837Z,39.25
2023-04-06T19:52:00.938Z,39.73
2023-04-06T19:54:28.080Z,40.49
2023-04-06T19:56:55.813Z,40.82
2023-04-06T19:59:22.958Z,41.04
2023-04-06T20:01:50.181Z,41.30
2023-04-06T20:04:17.461Z,41.98
2023-04-06T20:06:44.674Z,41.51
2023-04-06T20:09:12.135Z,42.21
2023-04-06T20:11:39.227Z,41.83
2023-04-06T20:14:06.352Z,42.15
2023-04-06T20:16:33.560Z,43.62
2023-04-06T20:19:00.896Z,44.73
2023-04-06T20:21:27.962Z,44.37
2023-04-06T20:23:55.017Z,44.81
2023-04-06T20:26:22.113Z,44.27
2023-04-06T20:28:49.232Z,44.15
2023-04-06T20:31:16.407Z,44.02
2023-04-06T20:33:43.511Z,44.28
2023-04-06T20:36:11.421Z,43.53
2023-04-06T20:38:38.609Z,42.94
2023-04-06T20:41:07.644Z,42.87
2023-04-06T20:43:35.530Z,43.29
2023-04-06T20:46:03.123Z,43.85
2023-04-06T20:48:33.445Z,43.32
2023-04-06T20:51:03.211Z,44.06
2023-04-06T20:53:31.715Z,43.51
2023-04-06T20:56:01.072Z,44.25
2023-04-06T20:58:28.125Z,44.01
2023-04-06T21:00:55.429Z,43.94
2023-04-06T21:03:23.364Z,45.29
2023-04-06T21:05:57.308Z,45.38
2023-04-06T21:08:24.465Z,44.76
2023-04-06T21:10:51.560Z,45.32
2023-04-06T21:13:18.613Z,45.44
2023-04-06T21:15:45.719Z,44.90
2023-04-06T21:18:12.956Z,45.10
2023-04-06T21:20:40.166Z,45.57
2023-04-06T21:23:07.315Z,45.13
2023-04-06T21:25:36.596Z,45.14
2023-04-06T21:28:03.876Z,45.32
2023-04-06T21:30:36.865Z,45.76
2023-04-06T21:33:04.473Z,45.83
2023-04-06T21:35:31.724Z,45.45
2023-04-06T21:37:58.767Z,45.15
2023-04-06T21:40:25.906Z,45.51
2023-04-06T21:42:52.945Z,45.13
2023-04-06T21:45:20.616Z,45.17
2023-04-06T21:47:47.739Z,45.83
2023-04-06T21:50:14.990Z,45.97
2023-04-06T21:52:42.070Z,46.58
2023-04-06T21:55:09.392Z,45.25
2023-04-06T21:57:36.579Z,44.66
2023-04-06T22:00:10.326Z,44.98
2023-04-06T22:02:45.643Z,44.84
2023-04-06T22:05:13.238Z,44.46
2023-04-06T22:07:40.563Z,44.55
2023-04-06T22:10:08.281Z,45.03
2023-04-06T22:12:35.395Z,44.54
2023-04-06T22:15:02.562Z,44.33
2023-04-06T22:17:30.205Z,44.86
2023-04-06T22:19:57.358Z,45.54
2023-04-06T22:22:24.644Z,45.09
2023-04-06T22:24:51.780Z,45.00
2023-04-06T22:27:18.839Z,45.32
2023-04-06T22:29:45.940Z,45.02
2023-04-06T22:32:13.055Z,45.37
2023-04-06T22:34:40.183Z,45.41
2023-04-06T22:37:07.197Z,44.94
2023-04-06T22:39:34.349Z,45.58
2023-04-06T22:42:01.726Z,46.27
2023-04-06T22:44:28.772Z,45.98
2023-04-06T22:46:55.959Z,46.24
2023-04-06T22:49:23.019Z,46.92
2023-04-06T22:51:50.267Z,46.60
2023-04-06T22:54:17.608Z,47.18
2023-04-06T22:56:44.943Z,47.66
2023-04-06T22:59:12.065Z,47.46
2023-04-06T23:01:39.151Z,47.75
2023-04-06T23:04:06.501Z,47.10
2023-04-06T23:06:33.792Z,46.90
2023-04-06T23:09:00.959Z,48.04
2023-04-06T23:11:28.083Z,48.02
2023-04-06T23:13:55.147Z,48.27
2023-04-06T23:16:22.361Z,47.88
2023-04-06T23:18:49.472Z,48.20
2023-04-06T23:21:16.499Z,47.85
2023-04-06T23:23:43.524Z,47.32
2023-04-06T23:26:10.732Z,47.73
2023-04-06T23:28:37.757Z,47.25
2023-04-06T23:31:04.775Z,47.30
2023-04-06T23:33:31.815Z,47.56
2023-04-06T23:35:58.870Z,47.79
2023-04-06T23:38:25.984Z,47.70
2023-04-06T23:40:53.038Z,47.88
2023-04-06T23:43:20.109Z,47.38
2023-04-06T23:45:47.209Z,47.34
2023-04-06T23:48:14.249Z,47.87
2023-04-06T23:50:41.427Z,48.32
2023-04-06T23:53:08.538Z,48.29
2023-04-06T23:55:35.616Z,47.84
2023-04-06T23:58:04.087Z,49.57
